createdAt,value
2018-02-05T00:00:33.089Z,108.93
2018-02-05T00:03:00.632Z,111.82
2018-02-05T00:05:28.151Z,109.00
2018-02-05T00:07:55.689Z,110.15
2018-02-05T00:10:23.212Z,121.23
2018-02-05T00:12:51.521Z,119.90
2018-02-05T00:15:19.060Z,103.50
2018-02-05T00:17:46.625Z,101.57
2018-02-05T00:20:14.191Z,102.40
2018-02-05T00:22:41.728Z,103.23
2018-02-05T00:25:10.353Z,113.13
2018-02-05T00:27:41.186Z,114.85
2018-02-05T00:30:11.675Z,109.67
2018-02-05T00:32:39.319Z,112.90
2018-02-05T00:35:07.604Z,96.27
2018-02-05T00:37:35.266Z,105.37
2018-02-05T00:40:02.796Z,99.13
2018-02-05T00:42:30.312Z,95.03
2018-02-05T00:44:58.615Z,112.00
2018-02-05T00:47:26.146Z,108.00
2018-02-05T00:49:53.685Z,107.23
2018-02-05T00:52:21.205Z,94.67
2018-02-05T00:54:49.507Z,99.87
2018-02-05T00:57:17.051Z,91.50
2018-02-05T00:59:44.587Z,105.10
2018-02-05T01:02:12.112Z,106.60
2018-02-05T01:04:39.668Z,93.93
2018-02-05T01:07:07.238Z,107.80
2018-02-05T01:09:34.783Z,101.70
2018-02-05T01:12:02.296Z,84.87
2018-02-05T01:14:30.768Z,90.70
2018-02-05T01:16:58.300Z,95.50
2018-02-05T01:19:25.840Z,89.37
2018-02-05T01:21:53.357Z,91.00
2018-02-05T01:24:20.890Z,102.57
2018-02-05T01:26:48.430Z,99.47
2018-02-05T01:29:16.051Z,89.83
2018-02-05T01:31:43.594Z,87.10
2018-02-05T01:34:11.211Z,92.17
2018-02-05T01:36:38.768Z,92.43
2018-02-05T01:39:06.290Z,73.07
2018-02-05T01:41:34.588Z,86.53
2018-02-05T01:44:02.121Z,89.20
2018-02-05T01:46:29.659Z,85.50
2018-02-05T01:48:57.176Z,80.27
2018-02-05T01:51:25.502Z,73.43
2018-02-05T01:53:53.137Z,82.03
2018-02-05T01:56:20.703Z,82.47
2018-02-05T01:58:48.220Z,86.03
2018-02-05T02:01:15.751Z,81.37
2018-02-05T02:03:43.267Z,79.63
2018-02-05T02:06:11.568Z,75.57
2018-02-05T02:08:39.089Z,80.45
2018-02-05T02:11:08.572Z,72.30
2018-02-05T02:13:36.087Z,83.50
2018-02-05T02:16:03.639Z,93.40
2018-02-05T02:18:31.149Z,81.53
2018-02-05T02:20:58.692Z,84.13
2018-02-05T02:23:26.240Z,82.80
2018-02-05T02:25:53.755Z,82.57
2018-02-05T02:28:21.283Z,73.83
2018-02-05T02:30:48.804Z,73.73
2018-02-05T02:33:17.167Z,72.77
2018-02-05T02:35:44.763Z,85.22
2018-02-05T02:38:12.316Z,79.70
2018-02-05T02:40:39.842Z,78.10
2018-02-05T02:43:07.396Z,73.50
2018-02-05T02:45:34.949Z,73.15
2018-02-05T02:48:02.599Z,66.10
2018-02-05T02:50:30.976Z,73.80
2018-02-05T02:53:00.102Z,68.27
2018-02-05T02:55:27.694Z,66.97
2018-02-05T02:57:55.302Z,66.93
2018-02-05T03:00:22.872Z,67.13
2018-02-05T03:02:50.529Z,58.40
2018-02-05T03:05:18.096Z,64.10
2018-02-05T03:07:45.608Z,60.00
2018-02-05T03:10:13.137Z,56.27
2018-02-05T03:12:40.851Z,60.47
2018-02-05T03:15:09.260Z,58.40
2018-02-05T03:17:36.773Z,59.10
2018-02-05T03:20:04.303Z,56.13
2018-02-05T03:22:33.559Z,57.53
2018-02-05T03:25:01.103Z,57.93
2018-02-05T03:27:28.726Z,53.58
2018-02-05T03:29:56.256Z,57.20
2018-02-05T03:32:23.824Z,57.70
2018-02-05T03:34:51.460Z,57.97
2018-02-05T03:37:18.984Z,55.87
2018-02-05T03:39:46.544Z,57.83
2018-02-05T03:42:14.091Z,54.47
2018-02-05T03:44:41.611Z,53.67
2018-02-05T03:47:09.268Z,50.23
2018-02-05T03:49:36.815Z,52.10
2018-02-05T03:52:04.350Z,58.03
2018-02-05T03:54:31.872Z,54.42
2018-02-05T03:57:00.976Z,51.53
2018-02-05T03:59:28.500Z,48.47
2018-02-05T04:01:56.031Z,56.60
2018-02-05T04:04:24.311Z,55.90
2018-02-05T04:06:58.217Z,52.33
2018-02-05T04:09:25.737Z,50.30
2018-02-05T04:11:54.043Z,48.53
2018-02-05T04:14:21.563Z,48.90
2018-02-05T04:16:49.092Z,49.20
2018-02-05T04:19:17.376Z,46.50
2018-02-05T04:21:44.916Z,51.40
2018-02-05T04:24:12.467Z,55.65
2018-02-05T04:26:40.335Z,43.07
2018-02-05T04:29:07.855Z,46.20
2018-02-05T04:31:35.440Z,60.23
2018-02-05T04:34:04.587Z,51.17
2018-02-05T04:36:32.146Z,54.30
2018-02-05T04:38:59.695Z,42.33
2018-02-05T04:41:27.572Z,43.70
2018-02-05T04:43:55.312Z,62.57
2018-02-05T04:46:23.625Z,49.10
2018-02-05T04:48:51.154Z,49.43
2018-02-05T04:51:19.434Z,47.50
2018-02-05T04:53:46.967Z,45.40
2018-02-05T04:56:15.252Z,50.80
2018-02-05T04:58:43.556Z,52.33
2018-02-05T05:01:11.069Z,48.10
2018-02-05T05:03:38.603Z,52.87
2018-02-05T05:06:06.111Z,53.37
2018-02-05T05:08:34.405Z,53.90
2018-02-05T05:11:01.943Z,52.13
2018-02-05T05:13:29.479Z,50.47
2018-02-05T05:15:57.005Z,49.00
2018-02-05T05:18:25.282Z,45.00
2018-02-05T05:20:53.589Z,50.27
2018-02-05T05:23:21.099Z,45.93
2018-02-05T05:25:48.636Z,45.30
2018-02-05T05:28:16.152Z,48.50
2018-02-05T05:30:43.684Z,47.27
2018-02-05T05:33:11.197Z,41.23
2018-02-05T05:35:38.801Z,41.47
2018-02-05T05:38:07.247Z,45.23
2018-02-05T05:40:35.691Z,42.70
2018-02-05T05:43:03.249Z,43.33
2018-02-05T05:45:30.775Z,44.50
2018-02-05T05:47:58.296Z,44.93
2018-02-05T05:50:25.827Z,46.63
2018-02-05T05:52:53.343Z,43.43
2018-02-05T05:55:21.941Z,44.57
2018-02-05T05:57:50.548Z,44.97
2018-02-05T06:00:18.074Z,38.55
2018-02-05T06:02:45.614Z,37.80
2018-02-05T06:05:13.136Z,41.90
2018-02-05T06:07:40.675Z,47.87
2018-02-05T06:10:08.203Z,41.42
2018-02-05T06:12:35.775Z,38.00
2018-02-05T06:15:03.292Z,34.97
2018-02-05T06:17:31.600Z,34.50
2018-02-05T06:19:59.198Z,31.70
2018-02-05T06:22:27.499Z,31.73
2018-02-05T06:24:55.015Z,33.93
2018-02-05T06:27:23.365Z,31.77
2018-02-05T06:29:51.755Z,34.53
2018-02-05T06:32:19.317Z,33.10
2018-02-05T06:34:46.870Z,38.15
2018-02-05T06:37:14.395Z,32.67
2018-02-05T06:39:41.960Z,34.10
2018-02-05T06:42:09.531Z,34.97
2018-02-05T06:44:38.867Z,28.53
2018-02-05T06:47:06.452Z,30.00
2018-02-05T06:49:35.546Z,29.43
2018-02-05T06:52:14.936Z,28.42
2018-02-05T06:54:54.470Z,31.63
2018-02-05T06:57:25.904Z,31.50
2018-02-05T06:59:53.524Z,31.63
2018-02-05T07:02:21.032Z,33.70
2018-02-05T07:04:49.331Z,30.60
2018-02-05T07:07:17.053Z,30.23
2018-02-05T07:09:45.368Z,30.52
2018-02-05T07:12:12.990Z,27.73
2018-02-05T07:14:40.523Z,37.53
2018-02-05T07:17:08.035Z,26.07
2018-02-05T07:19:35.571Z,30.87
2018-02-05T07:22:03.080Z,26.43
2018-02-05T07:24:30.611Z,24.23
2018-02-05T07:26:58.133Z,23.40
2018-02-05T07:29:26.557Z,26.17
2018-02-05T07:31:54.128Z,25.40
2018-02-05T07:34:22.438Z,26.53
2018-02-05T07:36:49.972Z,23.30
2018-02-05T07:39:17.616Z,24.10
2018-02-05T07:41:45.147Z,24.93
2018-02-05T07:44:12.659Z,19.23
2018-02-05T07:46:40.427Z,23.13
2018-02-05T07:49:08.712Z,26.33
2018-02-05T07:51:36.244Z,24.60
2018-02-05T07:54:03.747Z,22.60
2018-02-05T07:56:31.280Z,20.23
2018-02-05T07:58:58.805Z,26.10
2018-02-05T08:01:26.355Z,18.50
2018-02-05T08:03:53.875Z,20.00
2018-02-05T08:06:21.404Z,16.80
2018-02-05T08:08:48.928Z,18.83
2018-02-05T08:11:17.226Z,21.93
2018-02-05T08:13:44.868Z,22.67
2018-02-05T08:16:12.397Z,23.00
2018-02-05T08:18:40.681Z,18.85
2018-02-05T08:21:08.229Z,19.70
2018-02-05T08:23:35.744Z,15.50
2018-02-05T08:26:04.068Z,18.93
2018-02-05T08:28:32.392Z,19.07
2018-02-05T08:31:01.264Z,15.50
2018-02-05T08:33:28.832Z,18.57
2018-02-05T08:35:56.356Z,20.70
2018-02-05T08:38:23.891Z,13.07
2018-02-05T08:40:51.411Z,21.33
2018-02-05T08:43:19.722Z,18.60
2018-02-05T08:45:47.231Z,16.23
2018-02-05T08:48:14.807Z,25.33
2018-02-05T08:50:42.315Z,20.83
2018-02-05T08:53:10.619Z,21.93
2018-02-05T08:55:38.148Z,18.00
2018-02-05T08:58:05.678Z,18.75
2018-02-05T09:00:33.195Z,28.20
2018-02-05T09:03:00.735Z,17.23
2018-02-05T09:05:28.545Z,15.40
2018-02-05T09:07:56.108Z,16.87
2018-02-05T09:10:23.631Z,19.00
2018-02-05T09:12:51.146Z,19.60
2018-02-05T09:15:18.695Z,17.00
2018-02-05T09:17:46.212Z,16.73
2018-02-05T09:20:14.502Z,16.30
2018-02-05T09:22:42.031Z,11.80
2018-02-05T09:25:10.505Z,16.47
2018-02-05T09:27:38.046Z,14.17
2018-02-05T09:30:06.401Z,16.70
2018-02-05T09:32:33.915Z,27.58
2018-02-05T09:35:01.448Z,17.90
2018-02-05T09:37:28.987Z,11.65
2018-02-05T09:39:56.548Z,15.70
2018-02-05T09:42:24.847Z,11.45
2018-02-05T09:44:53.165Z,21.10
2018-02-05T09:47:20.691Z,11.43
2018-02-05T09:49:48.225Z,13.33
2018-02-05T09:52:15.772Z,11.37
2018-02-05T09:54:43.292Z,11.50
2018-02-05T09:57:10.806Z,10.60
2018-02-05T09:59:39.081Z,11.63
2018-02-05T10:02:07.380Z,14.07
2018-02-05T10:04:34.888Z,12.93
2018-02-05T10:07:03.186Z,12.50
2018-02-05T10:09:30.724Z,10.90
2018-02-05T10:11:58.251Z,10.27
2018-02-05T10:14:25.762Z,10.97
2018-02-05T10:16:53.285Z,10.20
2018-02-05T10:19:20.800Z,17.00
2018-02-05T10:21:54.307Z,10.23
2018-02-05T10:24:21.816Z,13.90
2018-02-05T10:26:49.368Z,6.07
2018-02-05T10:29:16.927Z,7.83
2018-02-05T10:31:44.455Z,6.75
2018-02-05T10:34:12.028Z,9.30
2018-02-05T10:36:39.685Z,9.25
2018-02-05T10:39:07.198Z,18.57
2018-02-05T10:41:34.728Z,11.85
2018-02-05T10:44:02.239Z,12.77
2018-02-05T10:46:30.566Z,7.57
2018-02-05T10:48:58.299Z,10.20
2018-02-05T10:51:25.814Z,5.90
2018-02-05T10:53:54.095Z,6.40
2018-02-05T10:56:21.998Z,6.23
2018-02-05T10:58:49.540Z,10.13
2018-02-05T11:01:17.051Z,16.50
2018-02-05T11:03:44.583Z,10.93
2018-02-05T11:06:12.121Z,9.98
2018-02-05T11:08:39.649Z,18.00
2018-02-05T11:11:07.919Z,11.33
2018-02-05T11:13:35.502Z,10.48
2018-02-05T11:16:03.036Z,7.23
2018-02-05T11:18:30.557Z,8.77
2018-02-05T11:20:58.108Z,7.10
2018-02-05T11:23:25.642Z,6.77
2018-02-05T11:25:53.156Z,13.27
2018-02-05T11:28:21.469Z,9.10
2018-02-05T11:30:49.016Z,9.97
2018-02-05T11:33:16.523Z,14.63
2018-02-05T11:35:45.754Z,11.93
2018-02-05T11:38:13.264Z,7.53
2018-02-05T11:40:40.828Z,10.00
2018-02-05T11:43:08.339Z,9.50
2018-02-05T11:45:36.843Z,6.50
2018-02-05T11:48:04.362Z,7.40
2018-02-05T11:50:31.879Z,6.43
2018-02-05T11:53:00.208Z,10.07
2018-02-05T11:55:27.780Z,5.47
2018-02-05T11:57:56.063Z,8.57
2018-02-05T12:00:23.596Z,7.90
2018-02-05T12:02:51.871Z,7.90
2018-02-05T12:05:19.449Z,10.80
2018-02-05T12:07:46.965Z,10.13
2018-02-05T12:10:14.494Z,6.33
2018-02-05T12:12:42.771Z,11.25
2018-02-05T12:15:10.618Z,11.73
2018-02-05T12:17:38.140Z,8.63
2018-02-05T12:20:06.412Z,7.00
2018-02-05T12:22:34.699Z,7.17
2018-02-05T12:25:02.240Z,8.80
2018-02-05T12:27:29.992Z,11.30
2018-02-05T12:29:57.546Z,15.00
2018-02-05T12:32:25.086Z,48.70
2018-02-05T12:34:52.603Z,6.55
2018-02-05T12:37:21.017Z,6.13
2018-02-05T12:39:48.585Z,12.47
2018-02-05T12:42:16.544Z,7.10
2018-02-05T12:44:44.904Z,11.20
2018-02-05T12:47:14.357Z,5.70
2018-02-05T12:49:42.725Z,6.37
2018-02-05T12:52:10.496Z,11.00
2018-02-05T12:54:38.395Z,5.80
2018-02-05T12:57:06.075Z,15.83
2018-02-05T12:59:33.723Z,12.53
2018-02-05T13:02:08.840Z,6.22
2018-02-05T13:04:51.586Z,11.50
2018-02-05T13:07:20.216Z,3.40
2018-02-05T13:09:47.760Z,10.30
2018-02-05T13:12:15.312Z,8.47
2018-02-05T13:14:42.873Z,7.87
2018-02-05T13:17:10.524Z,5.03
2018-02-05T13:19:38.885Z,7.90
2018-02-05T13:22:06.402Z,6.77
2018-02-05T13:24:34.105Z,12.02
2018-02-05T13:27:02.577Z,9.80
2018-02-05T13:29:30.103Z,11.07
2018-02-05T13:31:58.371Z,7.20
2018-02-05T13:34:26.664Z,12.07
2018-02-05T13:36:54.183Z,20.02
2018-02-05T13:39:22.476Z,10.60
2018-02-05T13:41:49.989Z,18.33
2018-02-05T13:44:17.523Z,16.58
2018-02-05T13:46:45.804Z,10.43
2018-02-05T13:49:13.359Z,9.60
2018-02-05T13:51:40.865Z,4.40
2018-02-05T13:54:08.380Z,12.10
2018-02-05T13:56:35.909Z,7.22
2018-02-05T13:59:03.423Z,15.00
2018-02-05T14:01:30.965Z,5.67
2018-02-05T14:03:58.487Z,8.70
2018-02-05T14:06:26.784Z,10.50
2018-02-05T14:08:54.312Z,24.77
2018-02-05T14:11:22.094Z,7.87
2018-02-05T14:13:49.825Z,7.35
2018-02-05T14:16:17.365Z,7.60
2018-02-05T14:18:44.887Z,8.00
2018-02-05T14:21:13.195Z,6.70
2018-02-05T14:23:41.495Z,8.40
2018-02-05T14:26:09.814Z,10.75
2018-02-05T14:28:37.333Z,16.00
2018-02-05T14:31:04.861Z,9.10
2018-02-05T14:33:32.400Z,13.83
2018-02-05T14:36:00.685Z,9.67
2018-02-05T14:38:28.231Z,13.85
2018-02-05T14:40:55.743Z,9.63
2018-02-05T14:43:23.348Z,10.57
2018-02-05T14:45:50.880Z,7.33
2018-02-05T14:48:18.415Z,7.53
2018-02-05T14:50:45.929Z,4.60
2018-02-05T14:53:14.219Z,7.63
2018-02-05T14:55:41.735Z,8.38
2018-02-05T14:58:10.117Z,6.67
2018-02-05T15:00:37.623Z,4.60
2018-02-05T15:03:05.143Z,6.57
2018-02-05T15:05:32.657Z,5.27
2018-02-05T15:08:00.189Z,5.73
2018-02-05T15:10:27.731Z,9.00
2018-02-05T15:12:55.264Z,13.73
2018-02-05T15:15:23.550Z,10.03
2018-02-05T15:17:51.240Z,7.12
2018-02-05T15:20:18.747Z,7.40
2018-02-05T15:22:46.288Z,4.75
2018-02-05T15:25:13.834Z,5.47
2018-02-05T15:27:41.385Z,7.17
2018-02-05T15:30:08.932Z,19.03
2018-02-05T15:32:36.480Z,12.03
2018-02-05T15:35:04.000Z,8.73
2018-02-05T15:37:31.648Z,14.80
2018-02-05T15:39:59.179Z,9.03
2018-02-05T15:42:27.464Z,9.23
2018-02-05T15:44:55.000Z,6.93
2018-02-05T15:47:22.515Z,5.23
2018-02-05T15:49:50.117Z,7.77
2018-02-05T15:52:17.887Z,21.17
2018-02-05T15:54:45.419Z,9.02
2018-02-05T15:57:12.931Z,9.80
2018-02-05T15:59:40.463Z,6.60
2018-02-05T16:02:07.995Z,4.87
2018-02-05T16:04:36.274Z,8.40
2018-02-05T16:07:03.818Z,7.00
2018-02-05T16:09:31.367Z,11.83
2018-02-05T16:11:58.913Z,7.05
2018-02-05T16:14:26.465Z,6.87
2018-02-05T16:16:54.049Z,10.07
2018-02-05T16:19:21.567Z,8.87
2018-02-05T16:21:49.102Z,11.77
2018-02-05T16:24:16.658Z,9.10
2018-02-05T16:26:44.253Z,26.17
2018-02-05T16:29:12.541Z,12.17
2018-02-05T16:31:40.137Z,22.60
2018-02-05T16:34:08.440Z,9.87
2018-02-05T16:36:36.013Z,12.83
2018-02-05T16:39:03.530Z,12.20
2018-02-05T16:41:31.091Z,8.73
2018-02-05T16:43:58.595Z,6.80
2018-02-05T16:46:26.876Z,7.30
2018-02-05T16:48:54.454Z,14.03
2018-02-05T16:51:21.967Z,8.53
2018-02-05T16:53:49.496Z,9.60
2018-02-05T16:56:17.783Z,12.33
2018-02-05T16:58:45.312Z,8.83
2018-02-05T17:01:12.827Z,8.63
2018-02-05T17:03:40.435Z,10.40
2018-02-05T17:06:07.961Z,11.53
2018-02-05T17:08:35.691Z,12.43
2018-02-05T17:11:03.232Z,10.40
2018-02-05T17:13:31.696Z,8.65
2018-02-05T17:15:59.269Z,9.50
2018-02-05T17:18:27.031Z,9.77
2018-02-05T17:20:55.040Z,11.77
2018-02-05T17:23:23.424Z,11.57
2018-02-05T17:25:51.026Z,11.33
2018-02-05T17:28:19.477Z,15.13
2018-02-05T17:30:47.103Z,13.10
2018-02-05T17:33:14.644Z,18.50
2018-02-05T17:35:42.378Z,12.60
2018-02-05T17:38:09.963Z,8.97
2018-02-05T17:40:37.611Z,16.17
2018-02-05T17:43:05.229Z,10.00
2018-02-05T17:45:32.809Z,12.00
2018-02-05T17:48:00.440Z,14.13
2018-02-05T17:50:27.994Z,13.97
2018-02-05T17:52:55.782Z,13.02
2018-02-05T17:55:23.337Z,12.03
2018-02-05T17:57:50.852Z,12.07
2018-02-05T18:00:18.386Z,11.47
2018-02-05T18:02:45.916Z,14.83
2018-02-05T18:05:13.511Z,16.35
2018-02-05T18:07:41.789Z,14.57
2018-02-05T18:10:09.328Z,14.30
2018-02-05T18:12:36.845Z,14.73
2018-02-05T18:15:05.172Z,12.80
2018-02-05T18:17:32.705Z,17.07
2018-02-05T18:20:00.219Z,9.87
2018-02-05T18:22:27.768Z,17.37
2018-02-05T18:24:55.288Z,12.60
2018-02-05T18:27:22.847Z,21.67
2018-02-05T18:29:50.371Z,17.70
2018-02-05T18:32:18.671Z,19.48
2018-02-05T18:34:46.184Z,17.17
2018-02-05T18:37:13.707Z,20.60
2018-02-05T18:39:41.244Z,14.67
2018-02-05T18:42:08.815Z,20.00
2018-02-05T18:44:37.916Z,19.50
2018-02-05T18:47:05.448Z,30.10
2018-02-05T18:49:33.727Z,18.43
2018-02-05T18:52:01.294Z,29.60
2018-02-05T18:54:28.837Z,19.17
2018-02-05T18:56:58.285Z,16.80
2018-02-05T18:59:26.584Z,15.63
2018-02-05T19:02:06.127Z,13.90
2018-02-05T19:04:33.670Z,14.43
2018-02-05T19:07:01.192Z,19.47
2018-02-05T19:09:28.887Z,16.27
2018-02-05T19:11:56.507Z,19.63
2018-02-05T19:14:24.043Z,30.33
2018-02-05T19:16:51.560Z,15.90
2018-02-05T19:19:19.116Z,17.17
2018-02-05T19:21:46.751Z,16.70
2018-02-05T19:24:14.336Z,14.97
2018-02-05T19:26:41.871Z,17.23
2018-02-05T19:29:09.412Z,20.03
2018-02-05T19:31:36.923Z,19.05
2018-02-05T19:34:04.552Z,19.87
2018-02-05T19:36:32.083Z,24.10
2018-02-05T19:38:59.791Z,24.73
2018-02-05T19:41:27.339Z,22.27
2018-02-05T19:43:54.851Z,19.33
2018-02-05T19:46:22.937Z,21.10
2018-02-05T19:48:50.465Z,22.80
2018-02-05T19:51:18.008Z,23.47
2018-02-05T19:53:45.555Z,22.00
2018-02-05T19:56:13.108Z,23.10
2018-02-05T19:58:40.915Z,23.73
2018-02-05T20:01:09.546Z,24.13
2018-02-05T20:03:37.068Z,18.57
2018-02-05T20:06:04.596Z,24.50
2018-02-05T20:08:33.358Z,24.97
2018-02-05T20:11:00.937Z,21.67
2018-02-05T20:13:28.456Z,19.23
2018-02-05T20:15:56.008Z,27.83
2018-02-05T20:18:23.523Z,20.53
2018-02-05T20:20:51.841Z,21.37
2018-02-05T20:23:19.428Z,20.83
2018-02-05T20:25:47.716Z,28.27
2018-02-05T20:28:15.307Z,26.33
2018-02-05T20:30:42.943Z,28.03
2018-02-05T20:33:10.557Z,29.52
2018-02-05T20:35:38.091Z,16.83
2018-02-05T20:38:05.643Z,23.33
2018-02-05T20:40:33.159Z,21.67
2018-02-05T20:43:01.472Z,18.73
2018-02-05T20:45:29.012Z,19.93
2018-02-05T20:47:56.668Z,20.73
2018-02-05T20:50:24.197Z,27.90
2018-02-05T20:52:52.027Z,15.93
2018-02-05T20:55:19.579Z,20.37
2018-02-05T20:57:47.103Z,18.03
2018-02-05T21:00:15.432Z,15.68
2018-02-05T21:02:43.760Z,14.33
2018-02-05T21:05:11.280Z,18.40
2018-02-05T21:07:38.872Z,15.10
2018-02-05T21:10:06.383Z,14.10
2018-02-05T21:12:33.950Z,18.93
2018-02-05T21:15:01.479Z,35.93
2018-02-05T21:17:29.025Z,15.53
2018-02-05T21:19:56.563Z,17.40
2018-02-05T21:22:24.180Z,20.10
2018-02-05T21:24:52.480Z,10.13
2018-02-05T21:27:20.011Z,18.03
2018-02-05T21:29:47.569Z,16.43
2018-02-05T21:32:15.099Z,11.53
2018-02-05T21:34:42.667Z,18.30
2018-02-05T21:37:10.185Z,16.42
2018-02-05T21:39:37.712Z,15.67
2018-02-05T21:42:06.074Z,17.23
2018-02-05T21:44:33.677Z,13.77
2018-02-05T21:47:01.197Z,18.40
2018-02-05T21:49:28.723Z,18.60
2018-02-05T21:51:56.244Z,17.77
2018-02-05T21:54:24.544Z,16.37
2018-02-05T21:56:52.064Z,15.13
2018-02-05T21:59:19.595Z,15.00
2018-02-05T22:01:47.128Z,15.87
2018-02-05T22:04:14.651Z,11.57
2018-02-05T22:06:42.276Z,10.40
2018-02-05T22:09:11.399Z,16.33
2018-02-05T22:11:38.977Z,18.25
2018-02-05T22:14:06.549Z,17.23
2018-02-05T22:16:34.095Z,23.58
2018-02-05T22:19:01.652Z,18.80
2018-02-05T22:21:29.196Z,21.73
2018-02-05T22:23:56.726Z,15.80
2018-02-05T22:26:24.260Z,16.97
2018-02-05T22:28:51.864Z,16.80
2018-02-05T22:31:19.364Z,14.68
2018-02-05T22:33:46.903Z,20.67
2018-02-05T22:36:14.434Z,19.25
2018-02-05T22:38:41.966Z,17.97
2018-02-05T22:41:10.133Z,16.17
2018-02-05T22:43:37.703Z,19.30
2018-02-05T22:46:05.239Z,22.23
2018-02-05T22:48:32.756Z,14.50
2018-02-05T22:51:00.352Z,22.10
2018-02-05T22:53:27.876Z,16.00
2018-02-05T22:55:55.467Z,27.30
2018-02-05T22:58:23.748Z,21.60
2018-02-05T23:00:51.283Z,18.90
2018-02-05T23:03:19.565Z,21.80
2018-02-05T23:05:48.005Z,20.43
2018-02-05T23:08:16.304Z,26.13
2018-02-05T23:10:43.832Z,19.62
2018-02-05T23:13:11.362Z,24.60
2018-02-05T23:15:39.672Z,22.98
2018-02-05T23:18:07.216Z,21.13
2018-02-05T23:20:34.770Z,22.07
2018-02-05T23:23:02.397Z,20.70
2018-02-05T23:25:30.248Z,22.15
2018-02-05T23:27:57.782Z,24.93
2018-02-05T23:30:25.339Z,21.77
2018-02-05T23:32:52.877Z,28.03
2018-02-05T23:35:20.391Z,26.10
2018-02-05T23:37:47.930Z,26.47
2018-02-05T23:40:16.366Z,28.67
2018-02-05T23:42:43.927Z,22.23
2018-02-05T23:45:12.220Z,29.37
2018-02-05T23:47:39.816Z,27.37
2018-02-05T23:50:07.331Z,26.23
2018-02-05T23:52:34.867Z,26.57
2018-02-05T23:55:03.207Z,31.30
2018-02-05T23:57:30.800Z,23.90
2018-02-05T23:59:58.326Z,25.10
